sensor_id;sensor_type;location;lat;lon;timestamp;P1;durP1;ratioP1;P2;durP2;ratioP2
31402;SDS011;18039;52.188;21.024;2022-12-29T00:01:42;11.68;;;5.63;;
31402;SDS011;18039;52.188;21.024;2022-12-29T00:04:10;13.75;;;6.47;;
31402;SDS011;18039;52.188;21.024;2022-12-29T00:06:41;10.43;;;6.03;;
31402;SDS011;18039;52.188;21.024;2022-12-29T00:09:12;11.77;;;6.30;;
31402;SDS011;18039;52.188;21.024;2022-12-29T00:11:40;10.90;;;5.60;;
31402;SDS011;18039;52.188;21.024;2022-12-29T00:14:10;15.65;;;6.40;;
31402;SDS011;18039;52.188;21.024;2022-12-29T00:16:57;11.73;;;5.80;;
31402;SDS011;18039;52.188;21.024;2022-12-29T00:19:24;9.98;;;5.93;;
31402;SDS011;18039;52.188;21.024;2022-12-29T00:22:10;12.18;;;5.75;;
31402;SDS011;18039;52.188;21.024;2022-12-29T00:24:57;11.50;;;6.30;;
31402;SDS011;18039;52.188;21.024;2022-12-29T00:27:43;12.10;;;6.28;;
31402;SDS011;18039;52.188;21.024;2022-12-29T00:30:33;12.45;;;6.32;;
31402;SDS011;18039;52.188;21.024;2022-12-29T00:33:21;11.55;;;5.70;;
31402;SDS011;18039;52.188;21.024;2022-12-29T00:38:51;11.48;;;6.32;;
31402;SDS011;18039;52.188;21.024;2022-12-29T00:41:39;12.20;;;6.20;;
31402;SDS011;18039;52.188;21.024;2022-12-29T00:44:25;12.80;;;5.63;;
31402;SDS011;18039;52.188;21.024;2022-12-29T00:46:52;15.35;;;6.30;;
31402;SDS011;18039;52.188;21.024;2022-12-29T00:49:19;10.88;;;5.20;;
31402;SDS011;18039;52.188;21.024;2022-12-29T00:52:01;11.25;;;5.38;;
31402;SDS011;18039;52.188;21.024;2022-12-29T00:54:32;11.43;;;6.10;;
31402;SDS011;18039;52.188;21.024;2022-12-29T00:57:00;10.18;;;5.28;;
31402;SDS011;18039;52.188;21.024;2022-12-29T00:59:28;10.63;;;5.25;;
31402;SDS011;18039;52.188;21.024;2022-12-29T01:01:56;10.93;;;5.45;;
31402;SDS011;18039;52.188;21.024;2022-12-29T01:04:24;11.32;;;5.53;;
31402;SDS011;18039;52.188;21.024;2022-12-29T01:06:52;12.90;;;5.70;;
31402;SDS011;18039;52.188;21.024;2022-12-29T01:09:20;11.98;;;5.63;;
31402;SDS011;18039;52.188;21.024;2022-12-29T01:12:07;9.65;;;5.32;;
31402;SDS011;18039;52.188;21.024;2022-12-29T01:14:35;10.93;;;5.22;;
31402;SDS011;18039;52.188;21.024;2022-12-29T01:17:03;10.10;;;5.22;;
31402;SDS011;18039;52.188;21.024;2022-12-29T01:19:50;11.30;;;4.60;;
31402;SDS011;18039;52.188;21.024;2022-12-29T01:22:17;11.23;;;5.05;;
31402;SDS011;18039;52.188;21.024;2022-12-29T01:24:44;9.00;;;4.82;;
31402;SDS011;18039;52.188;21.024;2022-12-29T01:27:12;11.55;;;5.10;;
31402;SDS011;18039;52.188;21.024;2022-12-29T01:29:40;11.27;;;4.80;;
31402;SDS011;18039;52.188;21.024;2022-12-29T01:32:08;10.77;;;4.70;;
31402;SDS011;18039;52.188;21.024;2022-12-29T01:34:35;11.52;;;5.15;;
31402;SDS011;18039;52.188;21.024;2022-12-29T01:37:02;7.65;;;4.50;;
31402;SDS011;18039;52.188;21.024;2022-12-29T01:39:29;11.43;;;4.80;;
31402;SDS011;18039;52.188;21.024;2022-12-29T01:41:57;7.80;;;4.45;;
31402;SDS011;18039;52.188;21.024;2022-12-29T01:47:14;7.13;;;4.18;;
31402;SDS011;18039;52.188;21.024;2022-12-29T01:49:54;8.70;;;4.47;;
31402;SDS011;18039;52.188;21.024;2022-12-29T01:52:24;9.77;;;4.82;;
31402;SDS011;18039;52.188;21.024;2022-12-29T01:57:25;9.20;;;4.60;;
31402;SDS011;18039;52.188;21.024;2022-12-29T01:59:57;7.85;;;4.57;;
31402;SDS011;18039;52.188;21.024;2022-12-29T02:02:42;8.30;;;4.50;;
31402;SDS011;18039;52.188;21.024;2022-12-29T02:05:15;8.15;;;4.40;;
31402;SDS011;18039;52.188;21.024;2022-12-29T02:07:47;10.20;;;4.78;;
31402;SDS011;18039;52.188;21.024;2022-12-29T02:10:17;8.63;;;4.28;;
31402;SDS011;18039;52.188;21.024;2022-12-29T02:12:47;8.15;;;4.40;;
31402;SDS011;18039;52.188;21.024;2022-12-29T02:15:14;9.85;;;4.90;;
31402;SDS011;18039;52.188;21.024;2022-12-29T02:17:53;11.38;;;4.38;;
31402;SDS011;18039;52.188;21.024;2022-12-29T02:20:37;10.48;;;4.82;;
31402;SDS011;18039;52.188;21.024;2022-12-29T02:23:25;9.88;;;4.38;;
31402;SDS011;18039;52.188;21.024;2022-12-29T02:26:29;10.50;;;4.82;;
31402;SDS011;18039;52.188;21.024;2022-12-29T02:31:52;10.73;;;4.10;;
31402;SDS011;18039;52.188;21.024;2022-12-29T02:38:31;8.00;;;3.95;;
31402;SDS011;18039;52.188;21.024;2022-12-29T02:41:05;7.25;;;4.00;;
31402;SDS011;18039;52.188;21.024;2022-12-29T02:51:50;10.45;;;4.63;;
31402;SDS011;18039;52.188;21.024;2022-12-29T02:54:23;7.18;;;3.97;;
31402;SDS011;18039;52.188;21.024;2022-12-29T02:59:56;10.73;;;4.32;;
31402;SDS011;18039;52.188;21.024;2022-12-29T03:11:27;8.98;;;4.32;;
31402;SDS011;18039;52.188;21.024;2022-12-29T03:14:27;11.13;;;4.40;;
31402;SDS011;18039;52.188;21.024;2022-12-29T03:17:25;6.93;;;3.83;;
31402;SDS011;18039;52.188;21.024;2022-12-29T03:19:59;8.13;;;4.25;;
31402;SDS011;18039;52.188;21.024;2022-12-29T03:22:38;8.18;;;4.00;;
31402;SDS011;18039;52.188;21.024;2022-12-29T03:25:18;8.90;;;4.45;;
31402;SDS011;18039;52.188;21.024;2022-12-29T03:27:51;7.60;;;3.95;;
31402;SDS011;18039;52.188;21.024;2022-12-29T03:30:22;8.80;;;4.03;;
31402;SDS011;18039;52.188;21.024;2022-12-29T03:32:54;7.90;;;4.10;;
31402;SDS011;18039;52.188;21.024;2022-12-29T03:35:28;7.32;;;3.90;;
31402;SDS011;18039;52.188;21.024;2022-12-29T03:37:59;7.68;;;4.15;;
31402;SDS011;18039;52.188;21.024;2022-12-29T03:40:30;7.97;;;3.85;;
31402;SDS011;18039;52.188;21.024;2022-12-29T03:43:01;7.43;;;4.03;;
31402;SDS011;18039;52.188;21.024;2022-12-29T03:45:31;10.60;;;4.70;;
31402;SDS011;18039;52.188;21.024;2022-12-29T03:47:59;11.57;;;4.40;;
31402;SDS011;18039;52.188;21.024;2022-12-29T03:50:27;9.02;;;4.28;;
31402;SDS011;18039;52.188;21.024;2022-12-29T03:52:54;10.07;;;4.45;;
31402;SDS011;18039;52.188;21.024;2022-12-29T03:55:22;11.13;;;4.45;;
31402;SDS011;18039;52.188;21.024;2022-12-29T03:57:49;7.90;;;4.40;;
31402;SDS011;18039;52.188;21.024;2022-12-29T04:00:23;10.25;;;4.65;;
31402;SDS011;18039;52.188;21.024;2022-12-29T04:02:50;8.82;;;4.32;;
31402;SDS011;18039;52.188;21.024;2022-12-29T04:05:20;9.23;;;4.35;;
31402;SDS011;18039;52.188;21.024;2022-12-29T04:07:50;8.93;;;4.53;;
31402;SDS011;18039;52.188;21.024;2022-12-29T04:10:18;9.50;;;4.72;;
31402;SDS011;18039;52.188;21.024;2022-12-29T04:12:47;10.32;;;4.90;;
31402;SDS011;18039;52.188;21.024;2022-12-29T04:15:15;9.00;;;4.93;;
31402;SDS011;18039;52.188;21.024;2022-12-29T04:17:44;8.90;;;4.57;;
31402;SDS011;18039;52.188;21.024;2022-12-29T04:20:11;9.57;;;5.05;;
31402;SDS011;18039;52.188;21.024;2022-12-29T04:23:02;13.07;;;4.55;;
31402;SDS011;18039;52.188;21.024;2022-12-29T04:25:32;13.52;;;5.50;;
31402;SDS011;18039;52.188;21.024;2022-12-29T04:28:02;12.25;;;5.50;;
31402;SDS011;18039;52.188;21.024;2022-12-29T04:30:49;12.70;;;5.22;;
31402;SDS011;18039;52.188;21.024;2022-12-29T04:33:20;10.27;;;5.43;;
31402;SDS011;18039;52.188;21.024;2022-12-29T04:35:47;11.63;;;5.38;;
31402;SDS011;18039;52.188;21.024;2022-12-29T04:38:15;9.63;;;4.97;;
31402;SDS011;18039;52.188;21.024;2022-12-29T04:40:45;15.75;;;5.82;;
31402;SDS011;18039;52.188;21.024;2022-12-29T04:43:13;9.55;;;5.35;;
31402;SDS011;18039;52.188;21.024;2022-12-29T04:46:01;10.63;;;6.10;;
31402;SDS011;18039;52.188;21.024;2022-12-29T04:48:37;14.07;;;6.38;;
31402;SDS011;18039;52.188;21.024;2022-12-29T04:51:23;14.80;;;6.35;;
31402;SDS011;18039;52.188;21.024;2022-12-29T04:53:50;16.40;;;5.93;;
31402;SDS011;18039;52.188;21.024;2022-12-29T04:56:18;15.90;;;5.72;;
31402;SDS011;18039;52.188;21.024;2022-12-29T04:58:45;12.88;;;6.22;;
31402;SDS011;18039;52.188;21.024;2022-12-29T05:01:13;12.85;;;6.53;;
31402;SDS011;18039;52.188;21.024;2022-12-29T05:03:40;15.93;;;6.47;;
31402;SDS011;18039;52.188;21.024;2022-12-29T05:06:08;9.68;;;5.68;;
31402;SDS011;18039;52.188;21.024;2022-12-29T05:08:35;12.68;;;5.97;;
31402;SDS011;18039;52.188;21.024;2022-12-29T05:11:02;10.93;;;6.25;;
31402;SDS011;18039;52.188;21.024;2022-12-29T05:13:29;15.73;;;6.03;;
31402;SDS011;18039;52.188;21.024;2022-12-29T05:15:57;11.88;;;6.82;;
31402;SDS011;18039;52.188;21.024;2022-12-29T05:18:24;17.48;;;6.82;;
31402;SDS011;18039;52.188;21.024;2022-12-29T05:20:51;14.50;;;6.53;;
31402;SDS011;18039;52.188;21.024;2022-12-29T05:23:19;13.27;;;6.35;;
31402;SDS011;18039;52.188;21.024;2022-12-29T05:26:00;15.02;;;6.63;;
31402;SDS011;18039;52.188;21.024;2022-12-29T05:28:32;12.73;;;6.72;;
31402;SDS011;18039;52.188;21.024;2022-12-29T05:31:11;12.48;;;6.68;;
31402;SDS011;18039;52.188;21.024;2022-12-29T05:33:38;11.75;;;6.60;;
31402;SDS011;18039;52.188;21.024;2022-12-29T05:36:06;12.05;;;5.90;;
31402;SDS011;18039;52.188;21.024;2022-12-29T05:38:37;16.90;;;7.30;;
31402;SDS011;18039;52.188;21.024;2022-12-29T05:41:04;15.02;;;5.93;;
31402;SDS011;18039;52.188;21.024;2022-12-29T05:44:05;13.63;;;5.82;;
31402;SDS011;18039;52.188;21.024;2022-12-29T05:46:53;13.30;;;5.50;;
31402;SDS011;18039;52.188;21.024;2022-12-29T05:49:43;11.80;;;5.68;;
31402;SDS011;18039;52.188;21.024;2022-12-29T05:52:39;13.68;;;5.43;;
31402;SDS011;18039;52.188;21.024;2022-12-29T05:55:08;13.77;;;6.47;;
31402;SDS011;18039;52.188;21.024;2022-12-29T05:57:38;11.15;;;5.85;;
31402;SDS011;18039;52.188;21.024;2022-12-29T06:02:45;11.55;;;6.55;;
31402;SDS011;18039;52.188;21.024;2022-12-29T06:05:14;19.83;;;7.05;;
31402;SDS011;18039;52.188;21.024;2022-12-29T06:07:41;13.57;;;6.20;;
31402;SDS011;18039;52.188;21.024;2022-12-29T06:10:09;11.70;;;6.22;;
31402;SDS011;18039;52.188;21.024;2022-12-29T06:12:44;15.18;;;7.25;;
31402;SDS011;18039;52.188;21.024;2022-12-29T06:15:11;13.70;;;6.45;;
31402;SDS011;18039;52.188;21.024;2022-12-29T06:17:40;11.95;;;5.65;;
31402;SDS011;18039;52.188;21.024;2022-12-29T06:20:07;11.27;;;5.90;;
31402;SDS011;18039;52.188;21.024;2022-12-29T06:22:37;11.30;;;5.68;;
31402;SDS011;18039;52.188;21.024;2022-12-29T06:25:05;12.30;;;6.10;;
31402;SDS011;18039;52.188;21.024;2022-12-29T06:27:33;13.63;;;6.65;;
31402;SDS011;18039;52.188;21.024;2022-12-29T06:30:01;8.98;;;5.40;;
31402;SDS011;18039;52.188;21.024;2022-12-29T06:32:29;11.63;;;5.75;;
31402;SDS011;18039;52.188;21.024;2022-12-29T06:35:01;16.35;;;5.78;;
31402;SDS011;18039;52.188;21.024;2022-12-29T06:37:30;13.82;;;5.45;;
31402;SDS011;18039;52.188;21.024;2022-12-29T06:39:57;11.52;;;5.53;;
31402;SDS011;18039;52.188;21.024;2022-12-29T06:42:30;15.27;;;6.00;;
31402;SDS011;18039;52.188;21.024;2022-12-29T06:45:25;12.27;;;5.65;;
31402;SDS011;18039;52.188;21.024;2022-12-29T06:47:52;11.40;;;5.40;;
31402;SDS011;18039;52.188;21.024;2022-12-29T06:50:19;10.05;;;5.63;;
31402;SDS011;18039;52.188;21.024;2022-12-29T06:52:47;8.82;;;5.10;;
31402;SDS011;18039;52.188;21.024;2022-12-29T06:55:14;14.02;;;5.55;;
31402;SDS011;18039;52.188;21.024;2022-12-29T06:57:41;12.85;;;5.50;;
31402;SDS011;18039;52.188;21.024;2022-12-29T07:00:09;11.18;;;5.38;;
31402;SDS011;18039;52.188;21.024;2022-12-29T07:02:36;11.90;;;5.25;;
31402;SDS011;18039;52.188;21.024;2022-12-29T07:05:03;12.77;;;5.97;;
31402;SDS011;18039;52.188;21.024;2022-12-29T07:07:31;10.07;;;5.10;;
31402;SDS011;18039;52.188;21.024;2022-12-29T07:09:58;11.32;;;5.68;;
31402;SDS011;18039;52.188;21.024;2022-12-29T07:12:25;12.43;;;5.55;;
31402;SDS011;18039;52.188;21.024;2022-12-29T07:14:52;12.93;;;5.78;;
31402;SDS011;18039;52.188;21.024;2022-12-29T07:17:20;10.50;;;4.80;;
31402;SDS011;18039;52.188;21.024;2022-12-29T07:19:47;11.82;;;6.05;;
31402;SDS011;18039;52.188;21.024;2022-12-29T07:22:14;12.90;;;5.07;;
31402;SDS011;18039;52.188;21.024;2022-12-29T07:24:41;9.15;;;4.65;;
31402;SDS011;18039;52.188;21.024;2022-12-29T07:27:09;11.27;;;5.07;;
31402;SDS011;18039;52.188;21.024;2022-12-29T07:29:37;13.38;;;5.97;;
31402;SDS011;18039;52.188;21.024;2022-12-29T07:32:05;10.90;;;5.53;;
31402;SDS011;18039;52.188;21.024;2022-12-29T07:34:32;10.68;;;5.35;;
31402;SDS011;18039;52.188;21.024;2022-12-29T07:37:00;9.05;;;5.65;;
31402;SDS011;18039;52.188;21.024;2022-12-29T07:39:27;8.13;;;4.50;;
31402;SDS011;18039;52.188;21.024;2022-12-29T07:41:54;11.40;;;5.57;;
31402;SDS011;18039;52.188;21.024;2022-12-29T07:44:36;9.25;;;4.70;;
31402;SDS011;18039;52.188;21.024;2022-12-29T07:47:20;13.02;;;5.18;;
31402;SDS011;18039;52.188;21.024;2022-12-29T07:49:47;10.88;;;4.82;;
31402;SDS011;18039;52.188;21.024;2022-12-29T07:52:14;10.93;;;5.32;;
31402;SDS011;18039;52.188;21.024;2022-12-29T07:54:41;10.85;;;4.88;;
31402;SDS011;18039;52.188;21.024;2022-12-29T07:57:08;13.25;;;5.82;;
31402;SDS011;18039;52.188;21.024;2022-12-29T07:59:35;10.07;;;5.28;;
31402;SDS011;18039;52.188;21.024;2022-12-29T08:02:03;12.75;;;5.93;;
31402;SDS011;18039;52.188;21.024;2022-12-29T08:04:30;11.27;;;4.97;;
31402;SDS011;18039;52.188;21.024;2022-12-29T08:06:57;14.80;;;5.10;;
31402;SDS011;18039;52.188;21.024;2022-12-29T08:09:24;11.02;;;5.03;;
31402;SDS011;18039;52.188;21.024;2022-12-29T08:11:53;9.95;;;4.50;;
31402;SDS011;18039;52.188;21.024;2022-12-29T08:14:20;9.98;;;4.65;;
31402;SDS011;18039;52.188;21.024;2022-12-29T08:16:47;9.70;;;5.30;;
31402;SDS011;18039;52.188;21.024;2022-12-29T08:19:14;10.07;;;4.25;;
31402;SDS011;18039;52.188;21.024;2022-12-29T08:21:42;12.23;;;5.65;;
31402;SDS011;18039;52.188;21.024;2022-12-29T08:24:09;10.02;;;5.07;;
31402;SDS011;18039;52.188;21.024;2022-12-29T08:26:36;8.95;;;5.40;;
31402;SDS011;18039;52.188;21.024;2022-12-29T08:29:03;10.93;;;5.25;;
31402;SDS011;18039;52.188;21.024;2022-12-29T08:31:30;11.60;;;4.57;;
31402;SDS011;18039;52.188;21.024;2022-12-29T08:33:57;7.82;;;4.80;;
31402;SDS011;18039;52.188;21.024;2022-12-29T08:36:26;7.68;;;4.25;;
31402;SDS011;18039;52.188;21.024;2022-12-29T08:38:53;9.95;;;4.50;;
31402;SDS011;18039;52.188;21.024;2022-12-29T08:41:20;9.10;;;4.50;;
31402;SDS011;18039;52.188;21.024;2022-12-29T08:43:49;8.45;;;4.68;;
31402;SDS011;18039;52.188;21.024;2022-12-29T08:46:16;10.45;;;5.20;;
31402;SDS011;18039;52.188;21.024;2022-12-29T08:48:43;9.20;;;4.75;;
31402;SDS011;18039;52.188;21.024;2022-12-29T08:51:11;11.00;;;5.32;;
31402;SDS011;18039;52.188;21.024;2022-12-29T08:53:38;9.73;;;4.85;;
31402;SDS011;18039;52.188;21.024;2022-12-29T08:56:05;9.45;;;4.55;;
31402;SDS011;18039;52.188;21.024;2022-12-29T08:58:43;8.30;;;4.85;;
31402;SDS011;18039;52.188;21.024;2022-12-29T09:01:11;11.20;;;5.38;;
31402;SDS011;18039;52.188;21.024;2022-12-29T09:03:38;14.35;;;6.15;;
31402;SDS011;18039;52.188;21.024;2022-12-29T09:06:25;12.88;;;5.28;;
31402;SDS011;18039;52.188;21.024;2022-12-29T09:08:53;8.07;;;4.65;;
31402;SDS011;18039;52.188;21.024;2022-12-29T09:11:22;8.20;;;4.93;;
31402;SDS011;18039;52.188;21.024;2022-12-29T09:13:51;11.88;;;5.05;;
31402;SDS011;18039;52.188;21.024;2022-12-29T09:16:20;9.68;;;4.47;;
31402;SDS011;18039;52.188;21.024;2022-12-29T09:18:49;10.07;;;5.82;;
31402;SDS011;18039;52.188;21.024;2022-12-29T09:21:17;9.32;;;4.80;;
31402;SDS011;18039;52.188;21.024;2022-12-29T09:23:44;10.05;;;5.07;;
31402;SDS011;18039;52.188;21.024;2022-12-29T09:26:11;7.10;;;4.43;;
31402;SDS011;18039;52.188;21.024;2022-12-29T09:28:38;11.18;;;4.60;;
31402;SDS011;18039;52.188;21.024;2022-12-29T09:31:06;10.60;;;4.70;;
31402;SDS011;18039;52.188;21.024;2022-12-29T09:33:33;8.75;;;4.18;;
31402;SDS011;18039;52.188;21.024;2022-12-29T09:36:01;9.95;;;4.78;;
31402;SDS011;18039;52.188;21.024;2022-12-29T09:38:28;10.52;;;4.20;;
31402;SDS011;18039;52.188;21.024;2022-12-29T09:41:01;7.15;;;4.07;;
31402;SDS011;18039;52.188;21.024;2022-12-29T09:49:08;7.18;;;4.50;;
31402;SDS011;18039;52.188;21.024;2022-12-29T09:51:48;7.60;;;4.40;;
31402;SDS011;18039;52.188;21.024;2022-12-29T09:57:10;10.43;;;4.60;;
31402;SDS011;18039;52.188;21.024;2022-12-29T09:59:44;10.48;;;5.18;;
31402;SDS011;18039;52.188;21.024;2022-12-29T10:02:20;8.13;;;4.20;;
31402;SDS011;18039;52.188;21.024;2022-12-29T10:04:55;6.43;;;4.05;;
31402;SDS011;18039;52.188;21.024;2022-12-29T10:10:01;9.60;;;4.25;;
31402;SDS011;18039;52.188;21.024;2022-12-29T10:24:17;11.15;;;4.50;;
31402;SDS011;18039;52.188;21.024;2022-12-29T10:26:48;8.05;;;4.80;;
31402;SDS011;18039;52.188;21.024;2022-12-29T10:29:19;9.68;;;5.03;;
31402;SDS011;18039;52.188;21.024;2022-12-29T10:31:56;9.68;;;5.10;;
31402;SDS011;18039;52.188;21.024;2022-12-29T10:37:05;6.38;;;4.03;;
31402;SDS011;18039;52.188;21.024;2022-12-29T10:39:54;13.25;;;4.65;;
31402;SDS011;18039;52.188;21.024;2022-12-29T10:44:54;7.53;;;4.15;;
31402;SDS011;18039;52.188;21.024;2022-12-29T10:47:24;12.32;;;5.18;;
31402;SDS011;18039;52.188;21.024;2022-12-29T10:50:00;12.10;;;6.05;;
31402;SDS011;18039;52.188;21.024;2022-12-29T10:52:29;11.70;;;4.72;;
31402;SDS011;18039;52.188;21.024;2022-12-29T10:55:01;9.75;;;5.65;;
31402;SDS011;18039;52.188;21.024;2022-12-29T10:57:33;9.68;;;4.70;;
31402;SDS011;18039;52.188;21.024;2022-12-29T11:00:14;10.48;;;4.95;;
31402;SDS011;18039;52.188;21.024;2022-12-29T11:08:15;12.55;;;4.85;;
31402;SDS011;18039;52.188;21.024;2022-12-29T11:10:45;11.40;;;4.60;;
31402;SDS011;18039;52.188;21.024;2022-12-29T11:15:51;12.35;;;5.65;;
31402;SDS011;18039;52.188;21.024;2022-12-29T11:18:19;15.73;;;5.43;;
31402;SDS011;18039;52.188;21.024;2022-12-29T11:20:47;8.85;;;5.18;;
31402;SDS011;18039;52.188;21.024;2022-12-29T11:26:07;12.85;;;5.68;;
31402;SDS011;18039;52.188;21.024;2022-12-29T11:28:34;13.15;;;5.28;;
31402;SDS011;18039;52.188;21.024;2022-12-29T11:31:03;9.50;;;4.93;;
31402;SDS011;18039;52.188;21.024;2022-12-29T11:33:31;9.73;;;4.97;;
31402;SDS011;18039;52.188;21.024;2022-12-29T11:36:06;12.73;;;5.05;;
31402;SDS011;18039;52.188;21.024;2022-12-29T11:38:55;12.93;;;4.80;;
31402;SDS011;18039;52.188;21.024;2022-12-29T11:41:27;12.35;;;5.07;;
31402;SDS011;18039;52.188;21.024;2022-12-29T11:43:57;8.95;;;5.10;;
31402;SDS011;18039;52.188;21.024;2022-12-29T11:46:27;9.55;;;5.28;;
31402;SDS011;18039;52.188;21.024;2022-12-29T11:48:59;9.75;;;4.68;;
31402;SDS011;18039;52.188;21.024;2022-12-29T11:51:30;11.68;;;5.18;;
31402;SDS011;18039;52.188;21.024;2022-12-29T11:54:02;12.38;;;5.38;;
31402;SDS011;18039;52.188;21.024;2022-12-29T12:01:54;16.60;;;5.40;;
31402;SDS011;18039;52.188;21.024;2022-12-29T12:04:23;12.73;;;5.03;;
31402;SDS011;18039;52.188;21.024;2022-12-29T12:07:12;11.65;;;5.25;;
31402;SDS011;18039;52.188;21.024;2022-12-29T12:09:50;9.13;;;4.57;;
31402;SDS011;18039;52.188;21.024;2022-12-29T12:12:32;10.48;;;5.07;;
31402;SDS011;18039;52.188;21.024;2022-12-29T12:15:08;9.23;;;4.63;;
31402;SDS011;18039;52.188;21.024;2022-12-29T12:25:31;11.93;;;5.00;;
31402;SDS011;18039;52.188;21.024;2022-12-29T12:30:40;12.32;;;5.55;;
31402;SDS011;18039;52.188;21.024;2022-12-29T12:33:21;15.13;;;6.47;;
31402;SDS011;18039;52.188;21.024;2022-12-29T12:39:06;10.43;;;5.00;;
31402;SDS011;18039;52.188;21.024;2022-12-29T12:44:47;14.20;;;5.75;;
31402;SDS011;18039;52.188;21.024;2022-12-29T12:50:14;14.38;;;5.32;;
31402;SDS011;18039;52.188;21.024;2022-12-29T13:03:30;10.68;;;4.78;;
31402;SDS011;18039;52.188;21.024;2022-12-29T13:06:44;10.75;;;4.78;;
31402;SDS011;18039;52.188;21.024;2022-12-29T13:17:34;13.38;;;5.10;;
31402;SDS011;18039;52.188;21.024;2022-12-29T13:22:40;11.70;;;5.20;;
31402;SDS011;18039;52.188;21.024;2022-12-29T13:28:09;12.30;;;5.18;;
31402;SDS011;18039;52.188;21.024;2022-12-29T13:39:05;12.30;;;5.20;;
31402;SDS011;18039;52.188;21.024;2022-12-29T13:41:50;11.50;;;4.80;;
31402;SDS011;18039;52.188;21.024;2022-12-29T13:50:00;7.75;;;4.47;;
31402;SDS011;18039;52.188;21.024;2022-12-29T13:52:37;9.35;;;4.90;;
31402;SDS011;18039;52.188;21.024;2022-12-29T14:00:19;12.80;;;5.38;;
31402;SDS011;18039;52.188;21.024;2022-12-29T14:05:37;12.52;;;5.20;;
31402;SDS011;18039;52.188;21.024;2022-12-29T14:08:04;17.25;;;6.65;;
31402;SDS011;18039;52.188;21.024;2022-12-29T14:10:47;13.32;;;5.03;;
31402;SDS011;18039;52.188;21.024;2022-12-29T14:13:17;17.00;;;5.53;;
31402;SDS011;18039;52.188;21.024;2022-12-29T14:15:50;10.45;;;5.18;;
31402;SDS011;18039;52.188;21.024;2022-12-29T14:18:20;11.43;;;5.10;;
31402;SDS011;18039;52.188;21.024;2022-12-29T14:28:45;9.35;;;5.15;;
31402;SDS011;18039;52.188;21.024;2022-12-29T14:36:38;17.05;;;6.28;;
31402;SDS011;18039;52.188;21.024;2022-12-29T14:44:56;11.50;;;5.60;;
31402;SDS011;18039;52.188;21.024;2022-12-29T14:50:05;11.63;;;5.53;;
31402;SDS011;18039;52.188;21.024;2022-12-29T14:58:10;16.52;;;6.63;;
31402;SDS011;18039;52.188;21.024;2022-12-29T15:00:39;12.05;;;6.45;;
31402;SDS011;18039;52.188;21.024;2022-12-29T15:05:53;15.05;;;7.43;;
31402;SDS011;18039;52.188;21.024;2022-12-29T15:08:26;15.18;;;6.40;;
31402;SDS011;18039;52.188;21.024;2022-12-29T15:11:04;12.57;;;6.15;;
31402;SDS011;18039;52.188;21.024;2022-12-29T15:16:24;12.82;;;6.53;;
31402;SDS011;18039;52.188;21.024;2022-12-29T15:18:56;11.77;;;5.85;;
31402;SDS011;18039;52.188;21.024;2022-12-29T15:21:29;10.10;;;5.57;;
31402;SDS011;18039;52.188;21.024;2022-12-29T15:23:58;11.80;;;6.32;;
31402;SDS011;18039;52.188;21.024;2022-12-29T15:26:45;9.23;;;5.35;;
31402;SDS011;18039;52.188;21.024;2022-12-29T15:29:29;11.68;;;6.38;;
31402;SDS011;18039;52.188;21.024;2022-12-29T15:32:14;11.25;;;6.80;;
31402;SDS011;18039;52.188;21.024;2022-12-29T15:34:43;10.38;;;6.15;;
31402;SDS011;18039;52.188;21.024;2022-12-29T15:37:55;11.48;;;5.65;;
31402;SDS011;18039;52.188;21.024;2022-12-29T15:40:03;12.30;;;5.63;;
31402;SDS011;18039;52.188;21.024;2022-12-29T15:45:09;18.95;;;6.63;;
31402;SDS011;18039;52.188;21.024;2022-12-29T15:47:39;12.75;;;6.40;;
31402;SDS011;18039;52.188;21.024;2022-12-29T15:50:14;14.38;;;7.53;;
31402;SDS011;18039;52.188;21.024;2022-12-29T15:52:51;12.50;;;5.53;;
31402;SDS011;18039;52.188;21.024;2022-12-29T15:57:56;11.13;;;6.22;;
31402;SDS011;18039;52.188;21.024;2022-12-29T16:00:26;11.77;;;5.55;;
31402;SDS011;18039;52.188;21.024;2022-12-29T16:02:57;10.47;;;5.73;;
31402;SDS011;18039;52.188;21.024;2022-12-29T16:05:33;12.13;;;5.32;;
31402;SDS011;18039;52.188;21.024;2022-12-29T16:08:04;12.07;;;5.68;;
31402;SDS011;18039;52.188;21.024;2022-12-29T16:10:50;13.60;;;6.75;;
31402;SDS011;18039;52.188;21.024;2022-12-29T16:13:24;10.77;;;5.55;;
31402;SDS011;18039;52.188;21.024;2022-12-29T16:15:56;11.95;;;5.32;;
31402;SDS011;18039;52.188;21.024;2022-12-29T16:18:29;13.25;;;5.55;;
31402;SDS011;18039;52.188;21.024;2022-12-29T16:21:01;11.70;;;5.80;;
31402;SDS011;18039;52.188;21.024;2022-12-29T16:23:41;13.57;;;6.15;;
31402;SDS011;18039;52.188;21.024;2022-12-29T16:26:17;13.27;;;5.97;;
31402;SDS011;18039;52.188;21.024;2022-12-29T16:28:59;13.90;;;6.13;;
31402;SDS011;18039;52.188;21.024;2022-12-29T16:31:33;11.65;;;6.05;;
31402;SDS011;18039;52.188;21.024;2022-12-29T16:34:26;13.98;;;5.75;;
31402;SDS011;18039;52.188;21.024;2022-12-29T16:37:29;13.68;;;6.60;;
31402;SDS011;18039;52.188;21.024;2022-12-29T16:43:04;12.05;;;6.28;;
31402;SDS011;18039;52.188;21.024;2022-12-29T16:50:43;11.95;;;6.35;;
31402;SDS011;18039;52.188;21.024;2022-12-29T16:53:19;17.13;;;7.57;;
31402;SDS011;18039;52.188;21.024;2022-12-29T16:55:47;15.07;;;6.72;;
31402;SDS011;18039;52.188;21.024;2022-12-29T16:58:18;20.00;;;6.90;;
31402;SDS011;18039;52.188;21.024;2022-12-29T17:00:48;11.77;;;6.22;;
31402;SDS011;18039;52.188;21.024;2022-12-29T17:03:16;15.80;;;6.70;;
31402;SDS011;18039;52.188;21.024;2022-12-29T17:06:02;13.20;;;6.65;;
31402;SDS011;18039;52.188;21.024;2022-12-29T17:08:37;11.23;;;6.07;;
31402;SDS011;18039;52.188;21.024;2022-12-29T17:11:08;12.82;;;6.13;;
31402;SDS011;18039;52.188;21.024;2022-12-29T17:20:14;12.00;;;6.25;;
31402;SDS011;18039;52.188;21.024;2022-12-29T17:22:47;10.85;;;6.05;;
31402;SDS011;18039;52.188;21.024;2022-12-29T17:25:16;13.35;;;5.93;;
31402;SDS011;18039;52.188;21.024;2022-12-29T17:30:31;12.00;;;6.43;;
31402;SDS011;18039;52.188;21.024;2022-12-29T17:33:04;11.90;;;5.90;;
31402;SDS011;18039;52.188;21.024;2022-12-29T17:35:41;8.77;;;5.35;;
31402;SDS011;18039;52.188;21.024;2022-12-29T17:38:16;9.40;;;6.00;;
31402;SDS011;18039;52.188;21.024;2022-12-29T17:40:46;11.85;;;6.40;;
31402;SDS011;18039;52.188;21.024;2022-12-29T17:43:14;10.68;;;5.90;;
31402;SDS011;18039;52.188;21.024;2022-12-29T17:45:43;11.25;;;5.68;;
31402;SDS011;18039;52.188;21.024;2022-12-29T17:48:12;12.48;;;6.05;;
31402;SDS011;18039;52.188;21.024;2022-12-29T17:50:41;13.25;;;6.35;;
31402;SDS011;18039;52.188;21.024;2022-12-29T17:53:10;13.43;;;6.65;;
31402;SDS011;18039;52.188;21.024;2022-12-29T17:55:40;15.27;;;7.15;;
31402;SDS011;18039;52.188;21.024;2022-12-29T17:58:26;14.70;;;6.75;;
31402;SDS011;18039;52.188;21.024;2022-12-29T18:00:56;12.10;;;5.88;;
31402;SDS011;18039;52.188;21.024;2022-12-29T18:03:38;10.77;;;6.28;;
31402;SDS011;18039;52.188;21.024;2022-12-29T18:06:08;16.35;;;6.85;;
31402;SDS011;18039;52.188;21.024;2022-12-29T18:08:38;13.45;;;7.50;;
31402;SDS011;18039;52.188;21.024;2022-12-29T18:11:23;15.38;;;5.97;;
31402;SDS011;18039;52.188;21.024;2022-12-29T18:13:52;11.52;;;6.22;;
31402;SDS011;18039;52.188;21.024;2022-12-29T18:16:21;15.95;;;6.90;;
31402;SDS011;18039;52.188;21.024;2022-12-29T18:18:49;11.85;;;6.60;;
31402;SDS011;18039;52.188;21.024;2022-12-29T18:21:20;16.08;;;6.88;;